Butts AAF (Fort Carson) Air Field
KFCS : now visible

Airfield :











YOU CAN JOIN US ON...

 
LOGIN :

Register | Disclaimer

   EN    FR    IT 

 









Legend :    VFR   Marginal VFR   IFR   Intensive IFR   Very Intensive IFR
Visi :
Ceiling :
>= 8 km
>= 3000ft
5 to 8 km
1000 to 3000 ft
1500m to 5 km
500 to 1000 ft
800 to 1500m
200 to 500 ft
< 800m
< 200 ft
Symbols :   Thunderstorms  Fog  Heavy snow  Heavy precipitations  Wind > 20 kt






- Airport Elevation : 5838 ft


KFCS - Butts AAF (Fort Carson) Air Field

CURRENT METAR :
  • 130358Z AUTO 35007KT 10SM CLR M02/M08 A2994 RMK AO2 SLP183 T10171085 $

EXPIRED METARs :
  • 130258Z AUTO 00000KT 10SM FEW180 01/M09 A2996 RMK AO2 SLP190 T00081087 58000 $
  • 130158Z AUTO 06006KT 10SM FEW170 03/M08 A2998 RMK AO2 SLP192 T00291085 $

TAF TAF KFCS
Valid from the 12 at 21:00 until the 14 at 03:00 UTC


122100Z 1221/1403 VRB06KT 9999 SKC QNH2991INS
BECMG 1314/1315 29012KT 9999 FEW200 QNH2994INS
TEMPO 1317/1322 30015G20KT 520006
BECMG 1400/1401 VRB06KT 9999 SKC QNH2996INS TX08/1222Z TNM02/1311Z



MET'MAP, your aeronautical weather chart ! - Copyright ORBIFLY December 2007 - Disclaimer

ORBIFLY MET'MAP TEAM :

Programming & Development : Alexandra Zaïnal
Concept & original design : Baudouin d'Aumeries
Assistance for programming : Marc-Olivier Méhu
Technical & hardware support : Manuel Goepfert

Contact : metmap@orbifly.com




SOURCES & CREDITS :

   NOAA       Earth
Advisory